Time;durP1;ratioP1;P1;durP2;ratioP2;P2;SDS_P1;SDS_P2;PMS_P1;PMS_P2;Temp;Humidity;BMP_temperature;BMP_pressure;BME280_temperature;BME280_humidity;BME280_pressure;Samples;Min_cycle;Max_cycle;Signal;HPM_P1;HPM_P2
2023/03/02 00:01:22;;;;;;;7.32;2.00;;;;;;;;;;5012873;28;19924;-74
2023/03/02 00:03:47;;;;;;;15.48;2.25;;;;;;;;;;5024347;28;20397;-74
2023/03/02 00:06:13;;;;;;;5.45;2.13;;;;;;;;;;5015599;28;20037;-76
2023/03/02 00:08:39;;;;;;;4.38;1.70;;;;;;;;;;5011608;28;20031;-74
2023/03/02 00:11:04;;;;;;;8.23;2.53;;;;;;;;;;5012344;28;20042;-74
2023/03/02 00:13:31;;;;;;;12.82;2.55;;;;;;;;;;5004494;28;20046;-75
2023/03/02 00:15:56;;;;;;;9.68;2.13;;;;;;;;;;5009148;28;20034;-74
2023/03/02 00:18:21;;;;;;;9.55;2.50;;;;;;;;;;5000860;28;20054;-74
2023/03/02 00:20:47;;;;;;;5.68;2.33;;;;;;;;;;5005906;28;20037;-74
2023/03/02 00:23:13;;;;;;;4.43;1.90;;;;;;;;;;5016106;28;20038;-74
2023/03/02 00:25:39;;;;;;;10.32;2.50;;;;;;;;;;5026941;28;20041;-74
2023/03/02 00:28:05;;;;;;;5.03;1.48;;;;;;;;;;5014579;28;20046;-75
2023/03/02 00:30:30;;;;;;;6.03;1.52;;;;;;;;;;5011360;28;20102;-74
2023/03/02 00:32:57;;;;;;;6.68;1.83;;;;;;;;;;5010171;28;20033;-74
2023/03/02 00:35:23;;;;;;;12.43;2.63;;;;;;;;;;5015636;28;20084;-74
2023/03/02 00:37:48;;;;;;;11.88;2.25;;;;;;;;;;5011354;28;20105;-74
2023/03/02 00:40:14;;;;;;;8.98;2.63;;;;;;;;;;5015576;28;20048;-74
2023/03/02 00:42:39;;;;;;;10.80;2.05;;;;;;;;;;5014027;28;20119;-74
2023/03/02 00:45:06;;;;;;;6.72;2.25;;;;;;;;;;5015296;28;20524;-74
2023/03/02 00:47:35;;;;;;;10.95;2.42;;;;;;;;;;5029345;28;20121;-74
2023/03/02 00:50:01;;;;;;;10.52;2.25;;;;;;;;;;5018031;28;20041;-74
2023/03/02 00:52:29;;;;;;;10.10;2.55;;;;;;;;;;5012568;28;20100;-74
2023/03/02 00:54:54;;;;;;;9.38;1.98;;;;;;;;;;5009451;28;20117;-74
2023/03/02 00:57:19;;;;;;;9.18;2.78;;;;;;;;;;5015213;28;20113;-74
2023/03/02 00:59:45;;;;;;;5.22;2.28;;;;;;;;;;5015025;28;20462;-74
2023/03/02 01:02:11;;;;;;;7.28;1.85;;;;;;;;;;5012668;28;20393;-74
2023/03/02 01:04:38;;;;;;;8.50;1.88;;;;;;;;;;5013764;28;20050;-74
2023/03/02 01:07:09;;;;;;;13.52;2.65;;;;;;;;;;5013548;28;20117;-74
2023/03/02 01:09:35;;;;;;;9.63;2.15;;;;;;;;;;5011908;28;20078;-73
2023/03/02 01:12:01;;;;;;;12.95;2.72;;;;;;;;;;5001349;28;20038;-75
2023/03/02 01:14:26;;;;;;;7.93;2.50;;;;;;;;;;4999887;28;20454;-73
2023/03/02 01:16:52;;;;;;;6.43;2.30;;;;;;;;;;5014621;28;20474;-73
2023/03/02 01:19:17;;;;;;;6.57;2.42;;;;;;;;;;5015080;28;20088;-74
2023/03/02 01:21:43;;;;;;;9.73;2.55;;;;;;;;;;5024941;28;20137;-73
2023/03/02 01:24:10;;;;;;;8.40;3.05;;;;;;;;;;5000704;28;20042;-73
2023/03/02 01:26:36;;;;;;;6.35;2.40;;;;;;;;;;5008696;28;20080;-73
2023/03/02 01:29:02;;;;;;;5.15;2.30;;;;;;;;;;5013049;28;20030;-77
2023/03/02 01:31:28;;;;;;;12.30;2.75;;;;;;;;;;5014018;28;20532;-73
2023/03/02 01:33:54;;;;;;;5.95;2.58;;;;;;;;;;5002005;28;20048;-75
2023/03/02 01:36:20;;;;;;;6.50;2.88;;;;;;;;;;5015339;28;20113;-74
2023/03/02 01:38:45;;;;;;;15.13;2.72;;;;;;;;;;5014681;28;20042;-74
2023/03/02 01:41:11;;;;;;;9.20;2.45;;;;;;;;;;5009846;28;20045;-74
2023/03/02 01:43:36;;;;;;;9.00;2.70;;;;;;;;;;5014169;28;20041;-74
2023/03/02 01:46:04;;;;;;;8.77;2.58;;;;;;;;;;5029391;28;20037;-77
2023/03/02 01:49:03;;;;;;;6.60;2.70;;;;;;;;;;4999205;28;20505;-75
2023/03/02 01:51:33;;;;;;;11.30;2.53;;;;;;;;;;4989562;28;20054;-74
2023/03/02 01:54:05;;;;;;;10.10;2.80;;;;;;;;;;4999698;28;20038;-74
2023/03/02 01:56:34;;;;;;;9.98;2.40;;;;;;;;;;5009402;28;20053;-74
2023/03/02 01:59:04;;;;;;;6.75;2.38;;;;;;;;;;5014225;28;20521;-74
2023/03/02 02:01:31;;;;;;;7.47;2.22;;;;;;;;;;5012370;28;20042;-75
2023/03/02 02:03:57;;;;;;;5.50;2.10;;;;;;;;;;5013085;28;20030;-75
2023/03/02 02:06:31;;;;;;;8.40;2.30;;;;;;;;;;5013820;28;20038;-76
2023/03/02 02:08:57;;;;;;;11.00;2.17;;;;;;;;;;5028940;28;20044;-73
2023/03/02 02:11:23;;;;;;;5.38;1.92;;;;;;;;;;5012098;28;20124;-74
2023/03/02 02:13:54;;;;;;;6.40;2.00;;;;;;;;;;5011537;28;20041;-75
2023/03/02 02:16:20;;;;;;;5.68;2.00;;;;;;;;;;5003271;28;20125;-75
2023/03/02 02:18:45;;;;;;;3.92;1.65;;;;;;;;;;5028887;28;20112;-75
2023/03/02 02:21:12;;;;;;;3.10;1.63;;;;;;;;;;5009611;28;20042;-73
2023/03/02 02:23:52;;;;;;;3.78;1.55;;;;;;;;;;5002188;28;20377;-73
2023/03/02 02:26:30;;;;;;;9.82;1.75;;;;;;;;;;5005560;28;20046;-73
2023/03/02 02:29:35;;;;;;;7.20;1.70;;;;;;;;;;5013857;28;20038;-73
2023/03/02 02:32:08;;;;;;;4.10;1.45;;;;;;;;;;5012190;28;20038;-73
2023/03/02 02:34:38;;;;;;;6.93;1.70;;;;;;;;;;5003719;28;20475;-73
2023/03/02 02:37:12;;;;;;;6.97;1.88;;;;;;;;;;5011478;28;20755;-74
2023/03/02 02:39:41;;;;;;;4.53;1.33;;;;;;;;;;5028794;28;20029;-73
2023/03/02 02:42:12;;;;;;;6.20;1.25;;;;;;;;;;5009879;28;20034;-74
2023/03/02 02:44:37;;;;;;;6.55;1.65;;;;;;;;;;5005130;28;20026;-74
2023/03/02 02:47:11;;;;;;;2.95;1.75;;;;;;;;;;5023151;28;20125;-73
2023/03/02 02:49:38;;;;;;;5.17;1.20;;;;;;;;;;5004379;28;20041;-73
2023/03/02 02:52:04;;;;;;;4.38;1.38;;;;;;;;;;5026037;28;20652;-74
2023/03/02 02:54:30;;;;;;;4.45;1.38;;;;;;;;;;5003405;28;20034;-73
2023/03/02 02:56:57;;;;;;;4.90;1.25;;;;;;;;;;5023144;28;20093;-73
2023/03/02 02:59:27;;;;;;;3.72;1.30;;;;;;;;;;5027840;28;20029;-73
2023/03/02 03:01:54;;;;;;;2.55;1.13;;;;;;;;;;5012145;28;20438;-73
2023/03/02 03:04:21;;;;;;;4.05;1.27;;;;;;;;;;5028379;28;20061;-76
2023/03/02 03:06:56;;;;;;;3.85;1.42;;;;;;;;;;5018718;28;20093;-73
2023/03/02 03:09:22;;;;;;;5.28;1.40;;;;;;;;;;5002775;28;20509;-73
2023/03/02 03:11:51;;;;;;;3.35;1.00;;;;;;;;;;5006554;28;20033;-73
2023/03/02 03:14:23;;;;;;;4.10;1.05;;;;;;;;;;5012215;28;20030;-73
2023/03/02 03:16:49;;;;;;;3.75;1.20;;;;;;;;;;4999511;28;20042;-73
2023/03/02 03:19:17;;;;;;;3.58;0.93;;;;;;;;;;5004201;28;20113;-73
2023/03/02 03:21:43;;;;;;;3.08;1.45;;;;;;;;;;5008969;28;20076;-73
2023/03/02 03:24:09;;;;;;;2.53;0.98;;;;;;;;;;5014731;28;20049;-73
2023/03/02 03:26:34;;;;;;;6.80;1.20;;;;;;;;;;5008938;28;20018;-73
2023/03/02 03:29:00;;;;;;;3.67;1.10;;;;;;;;;;5009148;28;20034;-74
2023/03/02 03:31:26;;;;;;;1.90;0.90;;;;;;;;;;5012441;28;20517;-74
2023/03/02 03:33:53;;;;;;;2.90;0.90;;;;;;;;;;5028077;28;20398;-73
2023/03/02 03:36:19;;;;;;;2.47;0.88;;;;;;;;;;5024068;28;20038;-73
2023/03/02 03:38:44;;;;;;;2.83;1.48;;;;;;;;;;5002092;28;20109;-73
2023/03/02 03:41:10;;;;;;;5.03;1.33;;;;;;;;;;5005211;28;20034;-74
2023/03/02 03:43:35;;;;;;;1.73;0.90;;;;;;;;;;5002236;28;20125;-74
2023/03/02 03:46:01;;;;;;;3.85;0.93;;;;;;;;;;5010426;28;20041;-73
2023/03/02 03:48:26;;;;;;;1.50;0.70;;;;;;;;;;5013888;28;20045;-73
2023/03/02 03:50:52;;;;;;;2.00;0.88;;;;;;;;;;5008880;28;20026;-73
2023/03/02 03:53:17;;;;;;;6.10;1.20;;;;;;;;;;4998812;28;20381;-73
2023/03/02 03:55:42;;;;;;;2.13;0.90;;;;;;;;;;5012144;28;20038;-73
2023/03/02 03:58:08;;;;;;;2.47;0.93;;;;;;;;;;5016631;28;20041;-74
2023/03/02 04:00:33;;;;;;;3.63;1.17;;;;;;;;;;5011874;28;20030;-74
2023/03/02 04:02:59;;;;;;;4.43;0.88;;;;;;;;;;5016275;28;20041;-75
2023/03/02 04:05:24;;;;;;;2.50;0.90;;;;;;;;;;5006409;28;20041;-73
2023/03/02 04:07:50;;;;;;;3.60;1.02;;;;;;;;;;5016168;28;20453;-72
2023/03/02 04:10:15;;;;;;;2.35;1.00;;;;;;;;;;5012954;28;20045;-73
2023/03/02 04:12:41;;;;;;;2.33;0.80;;;;;;;;;;5015104;28;20069;-73
2023/03/02 04:15:09;;;;;;;4.47;1.20;;;;;;;;;;5025101;28;20440;-74
2023/03/02 04:17:34;;;;;;;2.45;0.90;;;;;;;;;;5012032;28;20030;-73
2023/03/02 04:20:00;;;;;;;3.17;1.00;;;;;;;;;;5009341;28;20034;-73
2023/03/02 04:22:25;;;;;;;3.80;1.05;;;;;;;;;;5016080;28;20045;-73
2023/03/02 04:24:51;;;;;;;4.15;0.90;;;;;;;;;;5030879;28;20505;-73
2023/03/02 04:27:17;;;;;;;2.83;0.98;;;;;;;;;;5028532;28;20030;-72
2023/03/02 04:29:43;;;;;;;2.42;1.00;;;;;;;;;;5012512;28;20041;-73
2023/03/02 04:32:09;;;;;;;8.05;1.13;;;;;;;;;;5014510;28;20171;-74
2023/03/02 04:34:35;;;;;;;2.00;0.88;;;;;;;;;;5004307;28;20047;-73
2023/03/02 04:37:01;;;;;;;4.07;1.05;;;;;;;;;;5002423;28;20498;-73
2023/03/02 04:39:26;;;;;;;4.00;1.45;;;;;;;;;;5008828;28;20854;-73
2023/03/02 04:41:52;;;;;;;2.90;1.60;;;;;;;;;;5011618;28;20034;-75
2023/03/02 04:44:18;;;;;;;2.90;0.90;;;;;;;;;;5010438;28;20068;-73
2023/03/02 04:46:45;;;;;;;3.15;1.63;;;;;;;;;;5014047;28;20037;-73
2023/03/02 04:49:12;;;;;;;6.07;0.90;;;;;;;;;;5030731;28;20379;-73
2023/03/02 04:51:40;;;;;;;4.78;1.00;;;;;;;;;;5013566;28;20049;-73
2023/03/02 04:54:10;;;;;;;2.80;1.00;;;;;;;;;;5014186;28;20062;-73
2023/03/02 04:56:36;;;;;;;3.63;1.00;;;;;;;;;;5008030;28;20038;-73
2023/03/02 04:59:01;;;;;;;2.33;1.10;;;;;;;;;;5015358;28;20105;-73
2023/03/02 05:01:27;;;;;;;3.50;1.02;;;;;;;;;;5002559;28;20041;-74
2023/03/02 05:03:52;;;;;;;2.03;1.00;;;;;;;;;;5014445;28;20033;-75
2023/03/02 05:06:18;;;;;;;2.00;0.90;;;;;;;;;;5013575;28;20041;-73
2023/03/02 05:08:44;;;;;;;2.72;1.10;;;;;;;;;;5014964;28;20033;-73
2023/03/02 05:11:14;;;;;;;2.45;1.00;;;;;;;;;;5029982;28;20494;-73
2023/03/02 05:13:40;;;;;;;1.70;0.80;;;;;;;;;;5013559;28;20410;-73
2023/03/02 05:16:05;;;;;;;3.72;1.17;;;;;;;;;;5007061;28;20026;-73
2023/03/02 05:18:31;;;;;;;7.68;1.20;;;;;;;;;;5007053;28;20116;-73
2023/03/02 05:20:56;;;;;;;2.72;0.88;;;;;;;;;;5012339;28;20042;-73
2023/03/02 05:23:26;;;;;;;2.05;0.95;;;;;;;;;;5009385;28;20031;-73
2023/03/02 05:25:55;;;;;;;2.72;1.00;;;;;;;;;;5010757;28;20041;-75
2023/03/02 05:28:22;;;;;;;2.63;0.95;;;;;;;;;;5014695;28;20042;-73
2023/03/02 05:30:48;;;;;;;2.20;0.73;;;;;;;;;;5013754;28;20481;-73
2023/03/02 05:33:14;;;;;;;2.63;1.10;;;;;;;;;;5023857;28;20042;-73
2023/03/02 05:35:41;;;;;;;2.28;0.98;;;;;;;;;;5014327;28;20072;-72
2023/03/02 05:38:06;;;;;;;5.40;1.02;;;;;;;;;;5028108;28;20034;-73
2023/03/02 05:40:32;;;;;;;2.35;1.10;;;;;;;;;;5014165;28;20045;-73
2023/03/02 05:42:57;;;;;;;3.05;1.05;;;;;;;;;;5013219;28;20041;-73
2023/03/02 05:45:29;;;;;;;6.97;1.25;;;;;;;;;;5010278;28;20042;-73
2023/03/02 05:47:55;;;;;;;2.63;1.10;;;;;;;;;;5029366;28;20026;-73
2023/03/02 05:50:21;;;;;;;5.95;1.05;;;;;;;;;;5006217;28;20038;-73
2023/03/02 05:52:47;;;;;;;4.75;1.10;;;;;;;;;;5001431;28;20488;-73
2023/03/02 05:55:14;;;;;;;2.97;1.10;;;;;;;;;;4992888;28;20046;-73
2023/03/02 05:57:39;;;;;;;2.75;0.85;;;;;;;;;;5005956;28;20474;-72
2023/03/02 06:00:06;;;;;;;1.33;0.90;;;;;;;;;;5005740;28;20033;-73
2023/03/02 06:02:31;;;;;;;1.48;0.65;;;;;;;;;;5026397;28;20054;-72
2023/03/02 06:04:57;;;;;;;2.85;1.08;;;;;;;;;;5004288;28;21741;-72
2023/03/02 06:07:22;;;;;;;2.08;1.00;;;;;;;;;;5013963;28;20132;-73
2023/03/02 06:09:49;;;;;;;3.30;1.40;;;;;;;;;;5013703;28;20080;-73
2023/03/02 06:12:16;;;;;;;3.55;1.33;;;;;;;;;;5013184;28;20038;-73
2023/03/02 06:14:42;;;;;;;2.10;1.20;;;;;;;;;;5012606;28;20064;-74
2023/03/02 06:17:08;;;;;;;4.10;1.35;;;;;;;;;;5013335;28;20073;-73
2023/03/02 06:19:33;;;;;;;4.00;1.50;;;;;;;;;;5013859;28;20038;-73
2023/03/02 06:21:59;;;;;;;2.42;1.23;;;;;;;;;;5006509;28;20061;-72
2023/03/02 06:24:24;;;;;;;5.70;1.63;;;;;;;;;;5004730;28;20517;-72
2023/03/02 06:26:52;;;;;;;3.25;1.85;;;;;;;;;;5013461;28;20037;-72
2023/03/02 06:29:17;;;;;;;3.33;1.35;;;;;;;;;;5008412;28;20058;-72
2023/03/02 06:31:43;;;;;;;3.22;1.80;;;;;;;;;;5005874;28;20516;-72
2023/03/02 06:34:08;;;;;;;2.95;1.50;;;;;;;;;;5008424;28;20474;-72
2023/03/02 06:36:37;;;;;;;4.55;1.73;;;;;;;;;;5013107;28;20026;-73
2023/03/02 06:39:03;;;;;;;2.72;1.63;;;;;;;;;;5013705;28;20052;-73
2023/03/02 06:41:28;;;;;;;4.78;1.50;;;;;;;;;;5012671;28;20034;-73
2023/03/02 06:43:54;;;;;;;6.07;1.80;;;;;;;;;;5013667;28;20149;-73
2023/03/02 06:46:19;;;;;;;5.00;1.67;;;;;;;;;;5013207;28;20402;-72
2023/03/02 06:48:45;;;;;;;3.08;1.33;;;;;;;;;;5013435;28;20490;-72
2023/03/02 06:51:11;;;;;;;2.10;1.30;;;;;;;;;;5012776;28;20063;-72
2023/03/02 06:53:37;;;;;;;2.20;1.20;;;;;;;;;;5009438;28;20050;-72
2023/03/02 06:56:02;;;;;;;3.08;1.33;;;;;;;;;;5010131;28;20033;-73
2023/03/02 06:58:28;;;;;;;4.38;1.67;;;;;;;;;;4995411;28;20042;-74
2023/03/02 07:00:53;;;;;;;2.30;1.40;;;;;;;;;;5010888;28;20038;-72
2023/03/02 07:03:20;;;;;;;2.90;1.52;;;;;;;;;;5010313;28;20053;-73
2023/03/02 07:05:47;;;;;;;3.55;1.67;;;;;;;;;;5012425;28;20501;-72
2023/03/02 07:08:13;;;;;;;2.50;1.50;;;;;;;;;;5012250;28;20033;-72
2023/03/02 07:10:38;;;;;;;3.40;1.83;;;;;;;;;;5005728;28;20061;-73
2023/03/02 07:13:04;;;;;;;3.03;1.35;;;;;;;;;;5019965;28;20022;-73
2023/03/02 07:15:29;;;;;;;2.65;1.50;;;;;;;;;;5010291;28;20061;-74
2023/03/02 07:17:54;;;;;;;2.65;1.50;;;;;;;;;;5005051;28;20052;-74
2023/03/02 07:20:20;;;;;;;3.13;1.80;;;;;;;;;;5006935;28;20091;-74
2023/03/02 07:22:45;;;;;;;2.88;1.67;;;;;;;;;;5014065;28;20045;-74
2023/03/02 07:25:11;;;;;;;2.30;1.52;;;;;;;;;;5012392;28;20390;-74
2023/03/02 07:27:37;;;;;;;3.78;1.55;;;;;;;;;;5027181;28;20079;-73
2023/03/02 07:30:04;;;;;;;3.95;1.50;;;;;;;;;;5016177;28;20499;-74
2023/03/02 07:32:29;;;;;;;2.50;1.67;;;;;;;;;;5011508;28;20091;-73
2023/03/02 07:34:55;;;;;;;2.70;1.55;;;;;;;;;;5013406;28;20033;-72
2023/03/02 07:37:20;;;;;;;4.60;2.20;;;;;;;;;;5015712;28;20034;-73
2023/03/02 07:39:47;;;;;;;3.15;1.70;;;;;;;;;;5016076;28;20045;-73
2023/03/02 07:42:13;;;;;;;5.82;1.90;;;;;;;;;;5030098;28;20428;-73
2023/03/02 07:44:38;;;;;;;4.55;1.90;;;;;;;;;;4998662;28;20038;-75
2023/03/02 07:47:04;;;;;;;5.57;1.95;;;;;;;;;;5014807;28;20504;-73
2023/03/02 07:49:30;;;;;;;3.20;1.80;;;;;;;;;;5011838;28;20045;-73
2023/03/02 07:51:56;;;;;;;2.40;1.23;;;;;;;;;;5011954;28;20050;-74
2023/03/02 07:54:21;;;;;;;3.45;1.65;;;;;;;;;;5010568;28;20041;-74
2023/03/02 07:56:47;;;;;;;3.38;1.85;;;;;;;;;;4994244;28;20034;-75
2023/03/02 07:59:12;;;;;;;2.60;1.50;;;;;;;;;;5010687;28;20030;-75
2023/03/02 08:01:38;;;;;;;2.92;1.20;;;;;;;;;;5014054;28;20469;-74
2023/03/02 08:04:03;;;;;;;2.53;1.45;;;;;;;;;;5015548;28;20029;-75
2023/03/02 08:06:29;;;;;;;6.40;1.90;;;;;;;;;;5012801;28;20040;-74
2023/03/02 08:08:55;;;;;;;3.20;1.33;;;;;;;;;;5014290;28;20058;-76
2023/03/02 08:11:21;;;;;;;3.17;1.73;;;;;;;;;;5013435;28;20629;-76
2023/03/02 08:13:46;;;;;;;3.28;1.80;;;;;;;;;;5011924;28;20065;-76
2023/03/02 08:16:13;;;;;;;3.22;1.60;;;;;;;;;;5004766;28;20038;-75
2023/03/02 08:18:39;;;;;;;3.92;1.90;;;;;;;;;;5011488;28;20030;-75
2023/03/02 08:21:13;;;;;;;2.88;1.65;;;;;;;;;;5009735;28;20056;-75
2023/03/02 08:23:39;;;;;;;1.25;0.88;;;;;;;;;;5012128;28;20092;-75
2023/03/02 08:26:04;;;;;;;2.80;1.70;;;;;;;;;;4996694;28;20418;-75
2023/03/02 08:28:30;;;;;;;2.55;1.65;;;;;;;;;;5005645;28;20033;-76
2023/03/02 08:30:57;;;;;;;4.05;1.67;;;;;;;;;;4998832;28;20038;-75
2023/03/02 08:33:22;;;;;;;3.90;1.83;;;;;;;;;;5017315;28;20044;-76
2023/03/02 08:36:05;;;;;;;4.38;1.67;;;;;;;;;;4998620;28;20034;-75
2023/03/02 08:38:31;;;;;;;3.70;1.63;;;;;;;;;;5003422;28;20060;-76
2023/03/02 08:40:57;;;;;;;2.65;1.70;;;;;;;;;;5007975;28;20494;-76
2023/03/02 08:43:24;;;;;;;5.13;1.70;;;;;;;;;;5002595;28;20120;-76
2023/03/02 08:45:54;;;;;;;3.10;1.70;;;;;;;;;;5000566;28;20046;-76
2023/03/02 08:48:20;;;;;;;3.10;1.80;;;;;;;;;;5008290;28;20041;-75
2023/03/02 08:51:04;;;;;;;2.58;1.70;;;;;;;;;;5007384;28;20030;-76
2023/03/02 08:53:32;;;;;;;3.85;1.83;;;;;;;;;;5002361;28;20050;-75
2023/03/02 08:55:57;;;;;;;3.08;1.83;;;;;;;;;;5006530;28;20514;-75
2023/03/02 08:58:23;;;;;;;2.78;1.52;;;;;;;;;;5008698;28;20104;-76
2023/03/02 09:00:49;;;;;;;3.45;1.60;;;;;;;;;;5010920;28;20046;-75
2023/03/02 09:03:15;;;;;;;3.65;1.70;;;;;;;;;;5023929;28;20034;-76
2023/03/02 09:05:40;;;;;;;3.35;1.95;;;;;;;;;;5011973;28;20065;-74
2023/03/02 09:08:06;;;;;;;3.63;1.80;;;;;;;;;;5005954;28;20053;-75
2023/03/02 09:10:31;;;;;;;3.58;2.00;;;;;;;;;;5001469;28;20474;-75
2023/03/02 09:12:57;;;;;;;6.00;2.00;;;;;;;;;;5011313;28;20522;-78
2023/03/02 09:15:22;;;;;;;4.38;1.90;;;;;;;;;;5004099;28;20038;-76
2023/03/02 09:17:48;;;;;;;4.75;2.40;;;;;;;;;;5010589;28;20026;-76
2023/03/02 09:20:13;;;;;;;4.75;2.50;;;;;;;;;;5011304;28;20038;-75
2023/03/02 09:22:39;;;;;;;5.05;2.65;;;;;;;;;;5005913;28;20042;-76
2023/03/02 09:25:05;;;;;;;5.35;3.47;;;;;;;;;;5009734;28;20053;-76
2023/03/02 09:27:31;;;;;;;9.10;3.28;;;;;;;;;;5010098;28;20052;-75
2023/03/02 09:29:56;;;;;;;6.50;3.50;;;;;;;;;;5010134;28;20124;-75
2023/03/02 09:32:22;;;;;;;5.55;3.63;;;;;;;;;;5007012;28;20105;-75
2023/03/02 09:34:47;;;;;;;11.27;3.90;;;;;;;;;;5010494;28;20113;-75
2023/03/02 09:37:13;;;;;;;6.47;3.30;;;;;;;;;;5010560;28;20052;-74
2023/03/02 09:39:38;;;;;;;10.00;4.72;;;;;;;;;;5009547;28;20037;-75
2023/03/02 09:42:29;;;;;;;9.85;4.07;;;;;;;;;;5011547;28;20029;-76
2023/03/02 09:45:10;;;;;;;5.93;3.90;;;;;;;;;;5009768;28;20074;-75
2023/03/02 09:47:57;;;;;;;10.98;4.57;;;;;;;;;;5007117;28;20033;-75
2023/03/02 09:50:33;;;;;;;7.82;4.47;;;;;;;;;;5008867;28;20072;-80
2023/03/02 09:53:04;;;;;;;9.50;4.70;;;;;;;;;;5012076;28;20478;-75
2023/03/02 09:55:32;;;;;;;8.68;3.90;;;;;;;;;;5011984;28;20452;-75
2023/03/02 09:58:01;;;;;;;6.38;4.13;;;;;;;;;;5003795;28;20026;-75
2023/03/02 10:00:34;;;;;;;6.78;4.22;;;;;;;;;;5006135;28;20471;-76
2023/03/02 10:03:11;;;;;;;6.45;4.30;;;;;;;;;;4996889;28;20398;-75
2023/03/02 10:05:41;;;;;;;5.47;3.03;;;;;;;;;;5007034;28;20569;-75
2023/03/02 10:08:12;;;;;;;8.00;4.35;;;;;;;;;;4991945;28;20054;-75
2023/03/02 10:10:53;;;;;;;7.65;4.25;;;;;;;;;;5004196;28;20045;-75
2023/03/02 10:13:31;;;;;;;6.20;4.05;;;;;;;;;;4994814;28;20045;-75
2023/03/02 10:15:57;;;;;;;7.80;4.47;;;;;;;;;;4998118;28;20161;-75
2023/03/02 10:18:27;;;;;;;7.10;4.50;;;;;;;;;;4994148;28;20117;-75
2023/03/02 10:21:00;;;;;;;5.35;3.53;;;;;;;;;;5000470;28;20048;-75
2023/03/02 10:23:30;;;;;;;6.85;4.68;;;;;;;;;;5003467;28;20501;-76
2023/03/02 10:26:22;;;;;;;7.47;5.18;;;;;;;;;;5000765;28;20486;-75
2023/03/02 10:28:52;;;;;;;6.65;4.22;;;;;;;;;;5007887;28;20041;-76
2023/03/02 10:31:29;;;;;;;13.32;5.55;;;;;;;;;;4997226;28;20121;-76
2023/03/02 10:33:55;;;;;;;7.97;4.95;;;;;;;;;;5017438;28;20037;-75
2023/03/02 10:36:25;;;;;;;9.68;5.45;;;;;;;;;;5009655;28;20046;-76
2023/03/02 10:38:52;;;;;;;9.82;5.10;;;;;;;;;;4998854;28;20033;-78
2023/03/02 10:41:39;;;;;;;9.13;5.30;;;;;;;;;;4995369;28;20037;-75
2023/03/02 10:44:23;;;;;;;9.38;5.63;;;;;;;;;;5008967;28;20062;-75
2023/03/02 10:46:50;;;;;;;;;;;;;;;;;;5010390;28;20029;-75
2023/03/02 10:49:25;;;;;;;10.25;4.65;;;;;;;;;;5010122;28;19924;-74
2023/03/02 10:51:55;;;;;;;9.88;5.25;;;;;;;;;;5007582;28;20081;-75
2023/03/02 10:54:21;;;;;;;13.43;5.43;;;;;;;;;;4992811;28;20046;-75
2023/03/02 10:56:50;;;;;;;10.10;5.57;;;;;;;;;;5003463;28;20028;-75
2023/03/02 10:59:25;;;;;;;13.90;5.38;;;;;;;;;;5024425;28;20037;-75
2023/03/02 11:02:24;;;;;;;9.07;4.25;;;;;;;;;;4997314;28;20548;-75
2023/03/02 11:04:54;;;;;;;10.40;6.10;;;;;;;;;;4996043;28;20044;-75
2023/03/02 11:07:22;;;;;;;9.15;5.03;;;;;;;;;;5008674;28;20080;-75
2023/03/02 11:10:14;;;;;;;7.13;4.63;;;;;;;;;;4994515;28;20038;-75
2023/03/02 11:12:45;;;;;;;10.00;5.47;;;;;;;;;;5024516;28;20046;-77
2023/03/02 11:15:15;;;;;;;10.00;5.30;;;;;;;;;;5007902;28;20065;-75
2023/03/02 11:17:42;;;;;;;13.32;5.05;;;;;;;;;;5023401;28;20069;-75
2023/03/02 11:20:15;;;;;;;9.50;5.20;;;;;;;;;;4990429;28;20050;-75
2023/03/02 11:23:19;;;;;;;8.23;4.23;;;;;;;;;;5008842;28;20046;-76
2023/03/02 11:25:51;;;;;;;9.70;5.40;;;;;;;;;;4978526;28;20121;-75
2023/03/02 11:28:55;;;;;;;8.45;5.18;;;;;;;;;;5005325;28;20034;-76
2023/03/02 11:31:27;;;;;;;8.98;5.18;;;;;;;;;;4998335;28;20042;-77
2023/03/02 11:34:10;;;;;;;13.05;5.15;;;;;;;;;;4992388;28;20476;-77
2023/03/02 11:36:43;;;;;;;10.20;5.97;;;;;;;;;;5005717;28;20033;-76
2023/03/02 11:39:15;;;;;;;13.80;5.75;;;;;;;;;;4992669;28;20070;-75
2023/03/02 11:41:41;;;;;;;11.93;5.60;;;;;;;;;;5005575;28;20034;-75
2023/03/02 11:44:20;;;;;;;9.45;5.18;;;;;;;;;;5009046;28;20431;-75
2023/03/02 11:46:51;;;;;;;9.13;5.00;;;;;;;;;;4995238;28;20030;-75
2023/03/02 11:49:21;;;;;;;5.32;4.15;;;;;;;;;;5023412;28;20046;-78
2023/03/02 11:51:54;;;;;;;7.28;4.30;;;;;;;;;;4991744;28;20141;-74
2023/03/02 11:54:35;;;;;;;10.18;5.05;;;;;;;;;;5008692;28;20488;-75
2023/03/02 11:57:01;;;;;;;7.95;3.90;;;;;;;;;;5007116;28;20053;-75
2023/03/02 11:59:27;;;;;;;9.07;4.47;;;;;;;;;;5008346;28;20108;-76
2023/03/02 12:01:53;;;;;;;10.10;3.80;;;;;;;;;;5023303;28;20477;-75
2023/03/02 12:04:32;;;;;;;7.55;4.45;;;;;;;;;;5007333;28;20042;-76
2023/03/02 12:07:03;;;;;;;7.22;4.70;;;;;;;;;;5007889;28;20037;-76
2023/03/02 12:09:34;;;;;;;8.52;3.33;;;;;;;;;;5006099;28;20045;-75
2023/03/02 12:12:14;;;;;;;12.95;4.15;;;;;;;;;;5000330;28;20038;-75
2023/03/02 12:14:41;;;;;;;10.90;3.67;;;;;;;;;;5010250;28;20034;-76
2023/03/02 12:17:21;;;;;;;7.70;3.58;;;;;;;;;;5009996;28;20698;-76
2023/03/02 12:19:49;;;;;;;6.93;2.85;;;;;;;;;;5012434;28;20037;-76
2023/03/02 12:22:25;;;;;;;8.02;3.38;;;;;;;;;;5027343;28;20030;-75
2023/03/02 12:25:06;;;;;;;11.85;2.90;;;;;;;;;;5002674;28;20041;-75
2023/03/02 12:27:37;;;;;;;4.53;2.90;;;;;;;;;;5027249;28;20037;-75
2023/03/02 12:30:14;;;;;;;8.48;3.70;;;;;;;;;;5012214;28;20096;-76
2023/03/02 12:32:43;;;;;;;7.65;3.42;;;;;;;;;;5009585;28;20050;-74
2023/03/02 12:35:13;;;;;;;4.35;2.60;;;;;;;;;;5003233;28;20114;-75
2023/03/02 12:37:52;;;;;;;5.43;3.08;;;;;;;;;;5009512;28;20041;-76
2023/03/02 12:40:45;;;;;;;10.30;3.40;;;;;;;;;;5026940;28;20038;-75
2023/03/02 12:43:32;;;;;;;6.38;3.53;;;;;;;;;;5011708;28;20569;-75
2023/03/02 12:46:09;;;;;;;8.35;3.60;;;;;;;;;;5022782;28;20061;-75
2023/03/02 12:48:47;;;;;;;5.47;3.03;;;;;;;;;;5000621;28;20045;-75
2023/03/02 12:51:21;;;;;;;6.47;3.03;;;;;;;;;;5012338;28;20034;-75
2023/03/02 12:53:48;;;;;;;6.65;3.60;;;;;;;;;;5005737;28;20038;-76
2023/03/02 12:56:24;;;;;;;6.55;3.45;;;;;;;;;;5008939;28;20033;-75
2023/03/02 12:58:52;;;;;;;7.45;3.38;;;;;;;;;;5010958;28;20049;-75
2023/03/02 13:01:24;;;;;;;5.57;3.25;;;;;;;;;;5009662;28;20172;-75
2023/03/02 13:03:51;;;;;;;8.88;3.30;;;;;;;;;;5009379;28;20045;-75
2023/03/02 13:06:17;;;;;;;8.05;3.65;;;;;;;;;;5010550;28;20037;-77
2023/03/02 13:08:45;;;;;;;8.70;3.65;;;;;;;;;;5026722;28;20034;-74
2023/03/02 13:11:10;;;;;;;6.68;4.10;;;;;;;;;;5008679;28;20387;-76
2023/03/02 13:13:39;;;;;;;7.03;3.72;;;;;;;;;;5009087;28;20026;-75
2023/03/02 13:16:17;;;;;;;5.95;3.70;;;;;;;;;;5002401;28;20041;-75
2023/03/02 13:18:43;;;;;;;10.10;3.45;;;;;;;;;;5010006;28;20034;-75
2023/03/02 13:21:12;;;;;;;7.13;3.30;;;;;;;;;;5010695;28;20045;-75
2023/03/02 13:23:44;;;;;;;7.13;3.47;;;;;;;;;;4987090;28;20109;-75
2023/03/02 13:26:24;;;;;;;10.88;3.80;;;;;;;;;;5003214;28;20132;-75
2023/03/02 13:28:59;;;;;;;6.68;3.25;;;;;;;;;;4991929;28;20386;-75
2023/03/02 13:31:25;;;;;;;8.20;3.13;;;;;;;;;;5000213;28;20121;-75
2023/03/02 13:33:52;;;;;;;8.75;3.97;;;;;;;;;;5006852;28;20164;-75
2023/03/02 13:36:23;;;;;;;9.98;3.90;;;;;;;;;;5008535;28;20088;-75
2023/03/02 13:38:50;;;;;;;8.82;3.20;;;;;;;;;;5004390;28;20032;-76
2023/03/02 13:41:30;;;;;;;6.28;3.45;;;;;;;;;;5006592;28;20056;-75
2023/03/02 13:43:57;;;;;;;9.57;3.90;;;;;;;;;;5007162;28;20038;-76
2023/03/02 13:46:28;;;;;;;12.35;3.95;;;;;;;;;;5001703;28;20042;-77
2023/03/02 13:49:04;;;;;;;7.00;3.17;;;;;;;;;;5003758;28;20040;-76
2023/03/02 13:51:36;;;;;;;4.88;2.95;;;;;;;;;;5006678;28;20041;-75
2023/03/02 13:54:04;;;;;;;5.82;3.13;;;;;;;;;;5005351;28;20053;-76
2023/03/02 13:56:38;;;;;;;5.22;3.38;;;;;;;;;;5006607;28;20187;-76
2023/03/02 13:59:16;;;;;;;7.22;3.47;;;;;;;;;;5006220;28;20556;-76
2023/03/02 14:01:42;;;;;;;4.35;2.65;;;;;;;;;;5003618;28;20050;-77
2023/03/02 14:04:13;;;;;;;5.90;3.90;;;;;;;;;;5000786;28;20606;-76
2023/03/02 14:06:38;;;;;;;11.55;3.80;;;;;;;;;;5009701;28;20046;-76
2023/03/02 14:09:03;;;;;;;4.57;2.83;;;;;;;;;;5007066;28;20096;-76
2023/03/02 14:11:34;;;;;;;6.55;3.95;;;;;;;;;;4995731;28;20034;-76
2023/03/02 14:14:01;;;;;;;7.65;3.63;;;;;;;;;;5021950;28;20049;-76
2023/03/02 14:16:27;;;;;;;8.82;3.45;;;;;;;;;;5023647;28;20134;-76
2023/03/02 14:18:55;;;;;;;5.07;2.90;;;;;;;;;;5005121;28;20113;-76
2023/03/02 14:21:22;;;;;;;9.55;3.90;;;;;;;;;;4993726;28;20034;-76
2023/03/02 14:23:48;;;;;;;8.07;3.80;;;;;;;;;;5024190;28;20069;-75
2023/03/02 14:26:17;;;;;;;5.70;3.65;;;;;;;;;;4991481;28;20710;-75
2023/03/02 14:28:42;;;;;;;5.82;3.42;;;;;;;;;;5009366;28;20049;-76
2023/03/02 14:31:08;;;;;;;5.78;3.38;;;;;;;;;;5008265;28;20045;-76
2023/03/02 14:33:35;;;;;;;7.72;3.80;;;;;;;;;;5004537;28;20026;-75
2023/03/02 14:36:01;;;;;;;6.50;3.50;;;;;;;;;;5010332;28;20052;-76
2023/03/02 14:38:27;;;;;;;7.03;3.33;;;;;;;;;;4988091;28;20049;-76
2023/03/02 14:40:52;;;;;;;5.13;3.35;;;;;;;;;;5003572;28;20030;-76
2023/03/02 14:43:20;;;;;;;5.40;3.58;;;;;;;;;;5023269;28;20051;-76
2023/03/02 14:45:45;;;;;;;3.97;2.80;;;;;;;;;;4993834;28;20048;-75
2023/03/02 14:48:11;;;;;;;8.32;3.67;;;;;;;;;;4996511;28;20042;-76
2023/03/02 14:50:39;;;;;;;8.18;3.03;;;;;;;;;;5008250;28;20033;-76